Terminal Aerodrome Forecast
Issued by NWS Twin Cities, MN

Home | Current Version | Previous Version | Graphics & Text | Print | Product List | Glossary On
Versions: 1 2 3 4 5 6 7 8 9 10 11 12 13 14 15 16 17 18 19 20 21 22 23 24
000
FTUS43 KMPX 270500
TAFMSP
TAF
KMSP 270525Z 2706/2812 35003KT P6SM BKN100
     FM271500 11006KT P6SM SCT100 BKN250
     FM280300 12004KT P6SM OVC100
     FM281000 11004KT P6SM VCSH SCT060 OVC080=

USA.gov is the U.S. government's official web portal to all federal, state and local government web resources and services.